sensor_id;sensor_type;location;lat;lon;timestamp;temperature;humidity
31661;DHT22;18267;52.234;7.444;2023-07-29T00:01:49;19.50;99.90
31661;DHT22;18267;52.234;7.444;2023-07-29T00:04:15;19.50;99.90
31661;DHT22;18267;52.234;7.444;2023-07-29T00:06:41;19.40;99.90
31661;DHT22;18267;52.234;7.444;2023-07-29T00:09:07;19.40;99.90
31661;DHT22;18267;52.234;7.444;2023-07-29T00:11:32;19.30;99.90
31661;DHT22;18267;52.234;7.444;2023-07-29T00:14:00;19.30;99.90
31661;DHT22;18267;52.234;7.444;2023-07-29T00:16:25;19.20;99.90
31661;DHT22;18267;52.234;7.444;2023-07-29T00:18:51;19.30;99.90
31661;DHT22;18267;52.234;7.444;2023-07-29T00:21:17;19.30;99.90
31661;DHT22;18267;52.234;7.444;2023-07-29T00:23:42;19.30;99.90
31661;DHT22;18267;52.234;7.444;2023-07-29T00:26:08;19.30;99.90
31661;DHT22;18267;52.234;7.444;2023-07-29T00:28:33;19.30;99.90
31661;DHT22;18267;52.234;7.444;2023-07-29T00:30:59;19.30;99.90
31661;DHT22;18267;52.234;7.444;2023-07-29T00:33:24;19.30;99.90
31661;DHT22;18267;52.234;7.444;2023-07-29T00:35:50;19.20;99.90
31661;DHT22;18267;52.234;7.444;2023-07-29T00:38:16;19.20;99.90
31661;DHT22;18267;52.234;7.444;2023-07-29T00:40:42;19.20;99.90
31661;DHT22;18267;52.234;7.444;2023-07-29T00:43:08;19.20;99.90
31661;DHT22;18267;52.234;7.444;2023-07-29T00:45:34;19.20;99.90
31661;DHT22;18267;52.234;7.444;2023-07-29T00:48:00;19.10;99.90
31661;DHT22;18267;52.234;7.444;2023-07-29T00:50:27;19.10;99.90
31661;DHT22;18267;52.234;7.444;2023-07-29T00:52:54;19.10;99.90
31661;DHT22;18267;52.234;7.444;2023-07-29T00:55:20;19.20;99.90
31661;DHT22;18267;52.234;7.444;2023-07-29T00:57:45;19.20;99.90
31661;DHT22;18267;52.234;7.444;2023-07-29T01:00:14;19.00;99.90
31661;DHT22;18267;52.234;7.444;2023-07-29T01:02:42;19.10;99.90
31661;DHT22;18267;52.234;7.444;2023-07-29T01:05:07;19.00;99.90
31661;DHT22;18267;52.234;7.444;2023-07-29T01:07:47;19.00;99.90
31661;DHT22;18267;52.234;7.444;2023-07-29T01:13:25;18.90;99.90
31661;DHT22;18267;52.234;7.444;2023-07-29T01:15:59;18.90;99.90
31661;DHT22;18267;52.234;7.444;2023-07-29T01:18:31;18.90;99.90
31661;DHT22;18267;52.234;7.444;2023-07-29T01:21:00;18.90;99.90
31661;DHT22;18267;52.234;7.444;2023-07-29T01:23:32;18.90;99.90
31661;DHT22;18267;52.234;7.444;2023-07-29T01:25:57;18.90;99.90
31661;DHT22;18267;52.234;7.444;2023-07-29T01:28:23;18.90;99.90
31661;DHT22;18267;52.234;7.444;2023-07-29T01:30:53;18.90;99.90
31661;DHT22;18267;52.234;7.444;2023-07-29T01:33:32;18.90;99.90
31661;DHT22;18267;52.234;7.444;2023-07-29T01:36:05;18.80;99.90
31661;DHT22;18267;52.234;7.444;2023-07-29T01:38:38;18.80;99.90
31661;DHT22;18267;52.234;7.444;2023-07-29T01:41:07;18.80;99.90
31661;DHT22;18267;52.234;7.444;2023-07-29T01:43:34;18.80;99.90
31661;DHT22;18267;52.234;7.444;2023-07-29T01:46:04;18.80;99.90
31661;DHT22;18267;52.234;7.444;2023-07-29T01:48:30;18.80;99.90
31661;DHT22;18267;52.234;7.444;2023-07-29T01:50:57;18.80;99.90
31661;DHT22;18267;52.234;7.444;2023-07-29T01:53:23;18.80;99.90
31661;DHT22;18267;52.234;7.444;2023-07-29T01:55:49;18.90;99.90
31661;DHT22;18267;52.234;7.444;2023-07-29T01:58:14;18.90;99.90
31661;DHT22;18267;52.234;7.444;2023-07-29T02:00:40;18.90;99.90
31661;DHT22;18267;52.234;7.444;2023-07-29T02:03:05;19.00;99.90
31661;DHT22;18267;52.234;7.444;2023-07-29T02:05:31;19.00;99.90
31661;DHT22;18267;52.234;7.444;2023-07-29T02:07:56;19.00;99.90
31661;DHT22;18267;52.234;7.444;2023-07-29T02:10:22;19.00;99.90
31661;DHT22;18267;52.234;7.444;2023-07-29T02:12:47;19.00;99.90
31661;DHT22;18267;52.234;7.444;2023-07-29T02:15:13;19.00;99.90
31661;DHT22;18267;52.234;7.444;2023-07-29T02:17:41;19.00;99.90
31661;DHT22;18267;52.234;7.444;2023-07-29T02:20:07;19.00;99.90
31661;DHT22;18267;52.234;7.444;2023-07-29T02:22:33;19.10;99.90
31661;DHT22;18267;52.234;7.444;2023-07-29T02:24:58;19.10;99.90
31661;DHT22;18267;52.234;7.444;2023-07-29T02:27:24;19.10;99.90
31661;DHT22;18267;52.234;7.444;2023-07-29T02:29:52;19.10;99.90
31661;DHT22;18267;52.234;7.444;2023-07-29T02:32:18;19.00;99.90
31661;DHT22;18267;52.234;7.444;2023-07-29T02:34:44;19.20;99.90
31661;DHT22;18267;52.234;7.444;2023-07-29T02:37:10;19.20;99.90
31661;DHT22;18267;52.234;7.444;2023-07-29T02:39:36;19.10;99.90
31661;DHT22;18267;52.234;7.444;2023-07-29T02:42:01;19.00;99.90
31661;DHT22;18267;52.234;7.444;2023-07-29T02:44:27;19.10;99.90
31661;DHT22;18267;52.234;7.444;2023-07-29T02:46:52;19.10;99.90
31661;DHT22;18267;52.234;7.444;2023-07-29T02:49:20;19.10;99.90
31661;DHT22;18267;52.234;7.444;2023-07-29T02:51:45;19.00;99.90
31661;DHT22;18267;52.234;7.444;2023-07-29T02:54:11;19.10;99.90
31661;DHT22;18267;52.234;7.444;2023-07-29T02:56:36;19.10;99.90
31661;DHT22;18267;52.234;7.444;2023-07-29T02:59:02;19.10;99.90
31661;DHT22;18267;52.234;7.444;2023-07-29T03:01:27;19.10;99.90
31661;DHT22;18267;52.234;7.444;2023-07-29T03:03:53;19.20;99.90
31661;DHT22;18267;52.234;7.444;2023-07-29T03:06:18;19.20;99.90
31661;DHT22;18267;52.234;7.444;2023-07-29T03:08:44;19.20;99.90
31661;DHT22;18267;52.234;7.444;2023-07-29T03:11:12;19.10;99.90
31661;DHT22;18267;52.234;7.444;2023-07-29T03:13:38;19.20;99.90
31661;DHT22;18267;52.234;7.444;2023-07-29T03:16:11;19.20;99.90
31661;DHT22;18267;52.234;7.444;2023-07-29T03:18:37;19.20;99.90
31661;DHT22;18267;52.234;7.444;2023-07-29T03:21:03;19.20;99.90
31661;DHT22;18267;52.234;7.444;2023-07-29T03:23:30;19.10;99.90
31661;DHT22;18267;52.234;7.444;2023-07-29T03:25:57;19.20;99.90
31661;DHT22;18267;52.234;7.444;2023-07-29T03:28:28;19.10;99.90
31661;DHT22;18267;52.234;7.444;2023-07-29T03:30:57;19.10;99.90
31661;DHT22;18267;52.234;7.444;2023-07-29T03:33:25;19.10;99.90
31661;DHT22;18267;52.234;7.444;2023-07-29T03:35:50;19.10;99.90
31661;DHT22;18267;52.234;7.444;2023-07-29T03:38:16;19.20;99.90
31661;DHT22;18267;52.234;7.444;2023-07-29T03:40:42;19.20;99.90
31661;DHT22;18267;52.234;7.444;2023-07-29T03:43:08;19.20;99.90
31661;DHT22;18267;52.234;7.444;2023-07-29T03:45:34;19.20;99.90
31661;DHT22;18267;52.234;7.444;2023-07-29T03:48:00;19.20;99.90
31661;DHT22;18267;52.234;7.444;2023-07-29T03:50:26;19.20;99.90
31661;DHT22;18267;52.234;7.444;2023-07-29T03:52:52;19.20;99.90
31661;DHT22;18267;52.234;7.444;2023-07-29T03:55:18;19.20;99.90
31661;DHT22;18267;52.234;7.444;2023-07-29T03:57:43;19.20;99.90
31661;DHT22;18267;52.234;7.444;2023-07-29T04:00:09;19.20;99.90
31661;DHT22;18267;52.234;7.444;2023-07-29T04:02:35;19.20;99.90
31661;DHT22;18267;52.234;7.444;2023-07-29T04:05:03;19.20;99.90
31661;DHT22;18267;52.234;7.444;2023-07-29T04:07:29;19.20;99.90
31661;DHT22;18267;52.234;7.444;2023-07-29T04:09:55;19.30;99.90
31661;DHT22;18267;52.234;7.444;2023-07-29T04:12:21;19.30;99.90
31661;DHT22;18267;52.234;7.444;2023-07-29T04:14:47;19.30;99.90
31661;DHT22;18267;52.234;7.444;2023-07-29T04:17:12;19.30;99.90
31661;DHT22;18267;52.234;7.444;2023-07-29T04:19:38;19.30;99.90
31661;DHT22;18267;52.234;7.444;2023-07-29T04:22:04;19.30;99.90
31661;DHT22;18267;52.234;7.444;2023-07-29T04:24:29;19.30;99.90
31661;DHT22;18267;52.234;7.444;2023-07-29T04:26:55;19.30;99.90
31661;DHT22;18267;52.234;7.444;2023-07-29T04:29:20;19.20;99.90
31661;DHT22;18267;52.234;7.444;2023-07-29T04:31:48;19.30;99.90
31661;DHT22;18267;52.234;7.444;2023-07-29T04:34:14;19.30;99.90
31661;DHT22;18267;52.234;7.444;2023-07-29T04:36:39;19.30;99.90
31661;DHT22;18267;52.234;7.444;2023-07-29T04:39:05;19.40;99.90
31661;DHT22;18267;52.234;7.444;2023-07-29T04:41:30;19.40;99.90
31661;DHT22;18267;52.234;7.444;2023-07-29T04:43:56;19.50;99.90
31661;DHT22;18267;52.234;7.444;2023-07-29T04:46:22;19.40;99.90
31661;DHT22;18267;52.234;7.444;2023-07-29T04:48:47;19.40;99.90
31661;DHT22;18267;52.234;7.444;2023-07-29T04:51:13;19.40;99.90
31661;DHT22;18267;52.234;7.444;2023-07-29T04:53:38;19.50;99.90
31661;DHT22;18267;52.234;7.444;2023-07-29T04:56:04;19.50;99.90
31661;DHT22;18267;52.234;7.444;2023-07-29T04:58:30;19.60;99.90
31661;DHT22;18267;52.234;7.444;2023-07-29T05:00:55;19.60;99.90
31661;DHT22;18267;52.234;7.444;2023-07-29T05:03:21;19.60;99.90
31661;DHT22;18267;52.234;7.444;2023-07-29T05:05:47;19.60;99.90
31661;DHT22;18267;52.234;7.444;2023-07-29T05:08:12;19.60;99.90
31661;DHT22;18267;52.234;7.444;2023-07-29T05:10:38;19.60;99.90
31661;DHT22;18267;52.234;7.444;2023-07-29T05:13:03;19.70;99.90
31661;DHT22;18267;52.234;7.444;2023-07-29T05:15:29;19.70;99.90
31661;DHT22;18267;52.234;7.444;2023-07-29T05:17:54;19.70;99.90
31661;DHT22;18267;52.234;7.444;2023-07-29T05:20:20;19.80;99.90
31661;DHT22;18267;52.234;7.444;2023-07-29T05:22:45;19.70;99.90
31661;DHT22;18267;52.234;7.444;2023-07-29T05:25:11;19.80;99.90
31661;DHT22;18267;52.234;7.444;2023-07-29T05:27:36;19.80;99.90
31661;DHT22;18267;52.234;7.444;2023-07-29T05:30:02;19.80;99.90
31661;DHT22;18267;52.234;7.444;2023-07-29T05:32:28;19.80;99.90
31661;DHT22;18267;52.234;7.444;2023-07-29T05:34:53;19.80;99.90
31661;DHT22;18267;52.234;7.444;2023-07-29T05:37:19;19.90;99.90
31661;DHT22;18267;52.234;7.444;2023-07-29T05:39:44;19.90;99.90
31661;DHT22;18267;52.234;7.444;2023-07-29T05:42:10;19.90;99.90
31661;DHT22;18267;52.234;7.444;2023-07-29T05:44:35;20.00;99.90
31661;DHT22;18267;52.234;7.444;2023-07-29T05:47:01;20.10;99.90
31661;DHT22;18267;52.234;7.444;2023-07-29T05:49:26;20.10;99.90
31661;DHT22;18267;52.234;7.444;2023-07-29T05:51:52;20.20;99.90
31661;DHT22;18267;52.234;7.444;2023-07-29T05:54:18;20.30;99.90
31661;DHT22;18267;52.234;7.444;2023-07-29T05:56:44;20.30;99.90
31661;DHT22;18267;52.234;7.444;2023-07-29T05:59:10;20.50;99.90
31661;DHT22;18267;52.234;7.444;2023-07-29T06:01:35;20.50;99.90
31661;DHT22;18267;52.234;7.444;2023-07-29T06:04:01;20.50;99.90
31661;DHT22;18267;52.234;7.444;2023-07-29T06:06:27;20.50;99.90
31661;DHT22;18267;52.234;7.444;2023-07-29T06:08:52;20.50;99.90
31661;DHT22;18267;52.234;7.444;2023-07-29T06:11:18;20.50;99.90
31661;DHT22;18267;52.234;7.444;2023-07-29T06:13:43;20.60;99.90
31661;DHT22;18267;52.234;7.444;2023-07-29T06:16:09;20.50;99.90
31661;DHT22;18267;52.234;7.444;2023-07-29T06:18:34;20.40;99.90
31661;DHT22;18267;52.234;7.444;2023-07-29T06:21:00;20.40;99.90
31661;DHT22;18267;52.234;7.444;2023-07-29T06:23:25;20.30;99.90
31661;DHT22;18267;52.234;7.444;2023-07-29T06:25:51;20.40;99.90
31661;DHT22;18267;52.234;7.444;2023-07-29T06:28:17;20.40;99.90
31661;DHT22;18267;52.234;7.444;2023-07-29T06:30:42;20.40;99.90
31661;DHT22;18267;52.234;7.444;2023-07-29T06:33:08;20.50;99.90
31661;DHT22;18267;52.234;7.444;2023-07-29T06:35:34;20.40;99.90
31661;DHT22;18267;52.234;7.444;2023-07-29T06:37:59;20.50;99.90
31661;DHT22;18267;52.234;7.444;2023-07-29T06:40:25;20.40;99.90
31661;DHT22;18267;52.234;7.444;2023-07-29T06:42:50;20.40;99.90
31661;DHT22;18267;52.234;7.444;2023-07-29T06:45:16;20.40;99.90
31661;DHT22;18267;52.234;7.444;2023-07-29T06:47:41;20.60;99.90
31661;DHT22;18267;52.234;7.444;2023-07-29T06:50:07;20.80;99.90
31661;DHT22;18267;52.234;7.444;2023-07-29T06:52:33;20.80;99.90
31661;DHT22;18267;52.234;7.444;2023-07-29T06:54:58;20.80;99.90
31661;DHT22;18267;52.234;7.444;2023-07-29T06:57:24;20.80;99.90
31661;DHT22;18267;52.234;7.444;2023-07-29T06:59:49;20.90;99.90
31661;DHT22;18267;52.234;7.444;2023-07-29T07:02:15;20.80;99.90
31661;DHT22;18267;52.234;7.444;2023-07-29T07:04:41;20.70;99.90
31661;DHT22;18267;52.234;7.444;2023-07-29T07:07:06;20.70;99.90
31661;DHT22;18267;52.234;7.444;2023-07-29T07:09:32;20.70;99.90
31661;DHT22;18267;52.234;7.444;2023-07-29T07:11:57;20.60;99.90
31661;DHT22;18267;52.234;7.444;2023-07-29T07:14:23;20.60;99.90
31661;DHT22;18267;52.234;7.444;2023-07-29T07:16:48;20.70;99.90
31661;DHT22;18267;52.234;7.444;2023-07-29T07:19:14;20.60;99.90
31661;DHT22;18267;52.234;7.444;2023-07-29T07:21:39;20.80;99.90
31661;DHT22;18267;52.234;7.444;2023-07-29T07:24:05;20.90;99.90
31661;DHT22;18267;52.234;7.444;2023-07-29T07:26:31;21.00;99.90
31661;DHT22;18267;52.234;7.444;2023-07-29T07:28:56;21.10;99.90
31661;DHT22;18267;52.234;7.444;2023-07-29T07:31:22;21.30;99.90
31661;DHT22;18267;52.234;7.444;2023-07-29T07:33:48;21.30;99.90
31661;DHT22;18267;52.234;7.444;2023-07-29T07:36:13;21.40;99.90
31661;DHT22;18267;52.234;7.444;2023-07-29T07:38:39;21.30;99.90
31661;DHT22;18267;52.234;7.444;2023-07-29T07:41:04;21.30;99.90
31661;DHT22;18267;52.234;7.444;2023-07-29T07:43:30;21.30;99.90
31661;DHT22;18267;52.234;7.444;2023-07-29T07:45:59;21.40;99.90
31661;DHT22;18267;52.234;7.444;2023-07-29T07:48:26;21.30;99.90
31661;DHT22;18267;52.234;7.444;2023-07-29T07:50:52;21.30;99.90
31661;DHT22;18267;52.234;7.444;2023-07-29T07:53:17;21.30;99.90
31661;DHT22;18267;52.234;7.444;2023-07-29T07:55:43;21.20;99.90
31661;DHT22;18267;52.234;7.444;2023-07-29T07:58:08;21.00;99.90
31661;DHT22;18267;52.234;7.444;2023-07-29T08:00:34;21.00;99.90
31661;DHT22;18267;52.234;7.444;2023-07-29T08:02:59;21.00;99.90
31661;DHT22;18267;52.234;7.444;2023-07-29T08:05:25;21.10;99.90
31661;DHT22;18267;52.234;7.444;2023-07-29T08:07:50;21.20;99.90
31661;DHT22;18267;52.234;7.444;2023-07-29T08:10:16;21.50;99.90
31661;DHT22;18267;52.234;7.444;2023-07-29T08:12:42;21.50;99.90
31661;DHT22;18267;52.234;7.444;2023-07-29T08:15:07;21.40;99.90
31661;DHT22;18267;52.234;7.444;2023-07-29T08:17:33;21.50;99.90
31661;DHT22;18267;52.234;7.444;2023-07-29T08:19:58;21.40;99.90
31661;DHT22;18267;52.234;7.444;2023-07-29T08:22:24;21.40;99.90
31661;DHT22;18267;52.234;7.444;2023-07-29T08:24:49;21.30;99.90
31661;DHT22;18267;52.234;7.444;2023-07-29T08:27:15;21.30;99.90
31661;DHT22;18267;52.234;7.444;2023-07-29T08:29:40;21.30;99.90
31661;DHT22;18267;52.234;7.444;2023-07-29T08:32:07;21.30;99.90
31661;DHT22;18267;52.234;7.444;2023-07-29T08:34:32;21.30;99.90
31661;DHT22;18267;52.234;7.444;2023-07-29T08:36:58;21.30;99.90
31661;DHT22;18267;52.234;7.444;2023-07-29T08:39:23;21.10;99.90
31661;DHT22;18267;52.234;7.444;2023-07-29T08:42:03;21.20;99.90
31661;DHT22;18267;52.234;7.444;2023-07-29T08:44:40;21.20;99.90
31661;DHT22;18267;52.234;7.444;2023-07-29T08:47:06;21.20;99.90
31661;DHT22;18267;52.234;7.444;2023-07-29T08:49:33;21.20;99.90
31661;DHT22;18267;52.234;7.444;2023-07-29T08:51:59;21.20;99.90
31661;DHT22;18267;52.234;7.444;2023-07-29T08:54:25;21.30;99.90
31661;DHT22;18267;52.234;7.444;2023-07-29T08:56:51;21.30;99.90
31661;DHT22;18267;52.234;7.444;2023-07-29T08:59:16;21.20;99.90
31661;DHT22;18267;52.234;7.444;2023-07-29T09:01:43;21.20;99.90
31661;DHT22;18267;52.234;7.444;2023-07-29T09:04:09;21.10;99.90
31661;DHT22;18267;52.234;7.444;2023-07-29T09:06:35;21.10;99.90
31661;DHT22;18267;52.234;7.444;2023-07-29T09:09:02;21.10;99.90
31661;DHT22;18267;52.234;7.444;2023-07-29T09:11:28;21.10;99.90
31661;DHT22;18267;52.234;7.444;2023-07-29T09:13:53;21.00;99.90
31661;DHT22;18267;52.234;7.444;2023-07-29T09:16:22;21.00;99.90
31661;DHT22;18267;52.234;7.444;2023-07-29T09:18:49;21.00;99.90
31661;DHT22;18267;52.234;7.444;2023-07-29T09:21:20;21.20;99.90
31661;DHT22;18267;52.234;7.444;2023-07-29T09:23:49;21.30;99.90
31661;DHT22;18267;52.234;7.444;2023-07-29T09:26:22;21.40;99.90
31661;DHT22;18267;52.234;7.444;2023-07-29T09:28:52;21.50;99.90
31661;DHT22;18267;52.234;7.444;2023-07-29T09:31:23;21.60;99.90
31661;DHT22;18267;52.234;7.444;2023-07-29T09:33:48;21.70;99.90
31661;DHT22;18267;52.234;7.444;2023-07-29T09:36:14;21.90;99.90
31661;DHT22;18267;52.234;7.444;2023-07-29T09:38:40;21.90;99.90
31661;DHT22;18267;52.234;7.444;2023-07-29T09:41:06;21.80;99.90
31661;DHT22;18267;52.234;7.444;2023-07-29T09:43:33;21.80;99.90
31661;DHT22;18267;52.234;7.444;2023-07-29T09:46:00;21.80;99.90
31661;DHT22;18267;52.234;7.444;2023-07-29T09:48:27;21.80;99.90
31661;DHT22;18267;52.234;7.444;2023-07-29T09:50:56;22.00;99.90
31661;DHT22;18267;52.234;7.444;2023-07-29T09:53:22;22.10;99.90
31661;DHT22;18267;52.234;7.444;2023-07-29T09:55:48;22.20;99.90
31661;DHT22;18267;52.234;7.444;2023-07-29T09:58:19;22.20;99.90
31661;DHT22;18267;52.234;7.444;2023-07-29T10:00:51;22.30;99.90
31661;DHT22;18267;52.234;7.444;2023-07-29T10:03:18;22.30;99.90
31661;DHT22;18267;52.234;7.444;2023-07-29T10:05:44;22.40;99.90
31661;DHT22;18267;52.234;7.444;2023-07-29T10:08:10;22.50;99.90
31661;DHT22;18267;52.234;7.444;2023-07-29T10:10:37;22.50;99.90
31661;DHT22;18267;52.234;7.444;2023-07-29T10:13:02;22.60;99.90
31661;DHT22;18267;52.234;7.444;2023-07-29T10:15:29;22.70;99.90
31661;DHT22;18267;52.234;7.444;2023-07-29T10:17:57;22.70;99.90
31661;DHT22;18267;52.234;7.444;2023-07-29T10:20:22;22.90;99.90
31661;DHT22;18267;52.234;7.444;2023-07-29T10:22:48;23.10;99.90
31661;DHT22;18267;52.234;7.444;2023-07-29T10:25:18;23.30;99.90
31661;DHT22;18267;52.234;7.444;2023-07-29T10:30:13;23.40;99.90
31661;DHT22;18267;52.234;7.444;2023-07-29T10:32:42;23.50;99.90
31661;DHT22;18267;52.234;7.444;2023-07-29T10:35:10;23.50;99.90
31661;DHT22;18267;52.234;7.444;2023-07-29T10:37:36;23.40;99.90
31661;DHT22;18267;52.234;7.444;2023-07-29T10:40:06;23.30;99.90
31661;DHT22;18267;52.234;7.444;2023-07-29T10:42:32;23.40;99.90
31661;DHT22;18267;52.234;7.444;2023-07-29T10:44:58;23.40;99.90
31661;DHT22;18267;52.234;7.444;2023-07-29T10:47:25;23.40;99.90
31661;DHT22;18267;52.234;7.444;2023-07-29T10:49:56;23.50;99.90
31661;DHT22;18267;52.234;7.444;2023-07-29T10:54:58;23.30;99.90
31661;DHT22;18267;52.234;7.444;2023-07-29T10:57:34;23.30;99.90
31661;DHT22;18267;52.234;7.444;2023-07-29T11:00:01;23.30;99.90
31661;DHT22;18267;52.234;7.444;2023-07-29T11:02:33;23.40;99.90
31661;DHT22;18267;52.234;7.444;2023-07-29T11:05:05;23.50;99.90
31661;DHT22;18267;52.234;7.444;2023-07-29T11:07:31;23.60;99.90
31661;DHT22;18267;52.234;7.444;2023-07-29T11:10:08;23.40;99.90
31661;DHT22;18267;52.234;7.444;2023-07-29T11:17:38;23.20;99.90
31661;DHT22;18267;52.234;7.444;2023-07-29T11:20:05;23.20;99.90
31661;DHT22;18267;52.234;7.444;2023-07-29T11:22:31;23.20;99.90
31661;DHT22;18267;52.234;7.444;2023-07-29T11:24:56;23.20;99.90
31661;DHT22;18267;52.234;7.444;2023-07-29T11:27:22;23.20;99.90
31661;DHT22;18267;52.234;7.444;2023-07-29T11:29:48;23.30;99.90
31661;DHT22;18267;52.234;7.444;2023-07-29T11:32:13;23.40;99.90
31661;DHT22;18267;52.234;7.444;2023-07-29T11:34:40;23.40;99.90
31661;DHT22;18267;52.234;7.444;2023-07-29T11:37:06;23.40;99.90
31661;DHT22;18267;52.234;7.444;2023-07-29T11:39:40;23.50;99.90
31661;DHT22;18267;52.234;7.444;2023-07-29T11:42:06;23.70;99.90
31661;DHT22;18267;52.234;7.444;2023-07-29T11:44:32;23.60;99.90
31661;DHT22;18267;52.234;7.444;2023-07-29T11:46:57;23.50;99.90
31661;DHT22;18267;52.234;7.444;2023-07-29T11:49:23;23.50;99.90
31661;DHT22;18267;52.234;7.444;2023-07-29T11:51:49;23.50;99.90
31661;DHT22;18267;52.234;7.444;2023-07-29T11:54:15;23.40;99.90
31661;DHT22;18267;52.234;7.444;2023-07-29T11:56:41;23.50;99.90
31661;DHT22;18267;52.234;7.444;2023-07-29T11:59:06;23.60;99.90
31661;DHT22;18267;52.234;7.444;2023-07-29T12:01:32;23.60;99.90
31661;DHT22;18267;52.234;7.444;2023-07-29T12:03:58;23.50;99.90
31661;DHT22;18267;52.234;7.444;2023-07-29T12:06:24;23.50;99.90
31661;DHT22;18267;52.234;7.444;2023-07-29T12:08:51;23.50;99.90
31661;DHT22;18267;52.234;7.444;2023-07-29T12:11:17;23.60;99.90
31661;DHT22;18267;52.234;7.444;2023-07-29T12:13:44;23.80;99.90
31661;DHT22;18267;52.234;7.444;2023-07-29T12:16:09;23.90;99.90
31661;DHT22;18267;52.234;7.444;2023-07-29T12:18:36;24.00;99.90
31661;DHT22;18267;52.234;7.444;2023-07-29T12:21:02;23.90;99.90
31661;DHT22;18267;52.234;7.444;2023-07-29T12:23:28;24.00;99.90
31661;DHT22;18267;52.234;7.444;2023-07-29T12:25:58;23.90;99.90
31661;DHT22;18267;52.234;7.444;2023-07-29T12:28:25;23.80;99.90
31661;DHT22;18267;52.234;7.444;2023-07-29T12:30:57;23.80;99.90
31661;DHT22;18267;52.234;7.444;2023-07-29T12:33:36;23.60;99.90
31661;DHT22;18267;52.234;7.444;2023-07-29T12:36:03;23.60;99.90
31661;DHT22;18267;52.234;7.444;2023-07-29T12:38:29;23.40;99.90
31661;DHT22;18267;52.234;7.444;2023-07-29T12:40:55;23.30;99.90
31661;DHT22;18267;52.234;7.444;2023-07-29T12:43:21;23.30;99.90
31661;DHT22;18267;52.234;7.444;2023-07-29T12:45:49;23.40;99.90
31661;DHT22;18267;52.234;7.444;2023-07-29T12:48:14;23.60;99.90
31661;DHT22;18267;52.234;7.444;2023-07-29T12:50:40;23.70;99.90
31661;DHT22;18267;52.234;7.444;2023-07-29T12:53:07;23.80;99.90
31661;DHT22;18267;52.234;7.444;2023-07-29T12:55:33;23.90;99.90
31661;DHT22;18267;52.234;7.444;2023-07-29T12:57:59;23.90;99.90
31661;DHT22;18267;52.234;7.444;2023-07-29T13:00:25;23.80;99.90
31661;DHT22;18267;52.234;7.444;2023-07-29T13:02:50;23.80;99.90
31661;DHT22;18267;52.234;7.444;2023-07-29T13:05:16;24.10;99.90
31661;DHT22;18267;52.234;7.444;2023-07-29T13:07:43;24.10;99.90
31661;DHT22;18267;52.234;7.444;2023-07-29T13:10:09;24.00;99.90
31661;DHT22;18267;52.234;7.444;2023-07-29T13:12:35;23.90;99.90
31661;DHT22;18267;52.234;7.444;2023-07-29T13:15:01;23.80;99.90
31661;DHT22;18267;52.234;7.444;2023-07-29T13:17:27;23.80;99.90
31661;DHT22;18267;52.234;7.444;2023-07-29T13:19:52;23.70;99.90
31661;DHT22;18267;52.234;7.444;2023-07-29T13:22:19;23.70;99.90
31661;DHT22;18267;52.234;7.444;2023-07-29T13:24:45;23.60;99.90
31661;DHT22;18267;52.234;7.444;2023-07-29T13:27:11;23.60;99.90
31661;DHT22;18267;52.234;7.444;2023-07-29T13:29:37;23.50;99.90
31661;DHT22;18267;52.234;7.444;2023-07-29T13:32:02;23.60;99.90
31661;DHT22;18267;52.234;7.444;2023-07-29T13:34:28;23.60;99.90
31661;DHT22;18267;52.234;7.444;2023-07-29T13:36:54;23.60;99.90
31661;DHT22;18267;52.234;7.444;2023-07-29T13:39:19;23.40;99.90
31661;DHT22;18267;52.234;7.444;2023-07-29T13:41:45;23.50;99.90
31661;DHT22;18267;52.234;7.444;2023-07-29T13:44:10;23.40;99.90
31661;DHT22;18267;52.234;7.444;2023-07-29T13:46:36;23.20;99.90
31661;DHT22;18267;52.234;7.444;2023-07-29T13:49:02;23.20;99.90
31661;DHT22;18267;52.234;7.444;2023-07-29T13:51:28;23.10;99.90
31661;DHT22;18267;52.234;7.444;2023-07-29T13:53:54;22.90;99.90
31661;DHT22;18267;52.234;7.444;2023-07-29T13:56:21;22.70;99.90
31661;DHT22;18267;52.234;7.444;2023-07-29T13:58:47;22.60;99.90
31661;DHT22;18267;52.234;7.444;2023-07-29T14:01:12;22.50;99.90
31661;DHT22;18267;52.234;7.444;2023-07-29T14:03:38;22.50;99.90
31661;DHT22;18267;52.234;7.444;2023-07-29T14:06:03;22.40;99.90
31661;DHT22;18267;52.234;7.444;2023-07-29T14:08:29;22.40;99.90
31661;DHT22;18267;52.234;7.444;2023-07-29T14:10:54;22.30;99.90
31661;DHT22;18267;52.234;7.444;2023-07-29T14:13:20;22.20;99.90
31661;DHT22;18267;52.234;7.444;2023-07-29T14:15:45;22.10;99.90
31661;DHT22;18267;52.234;7.444;2023-07-29T14:18:11;22.00;99.90
31661;DHT22;18267;52.234;7.444;2023-07-29T14:20:37;22.10;99.90
31661;DHT22;18267;52.234;7.444;2023-07-29T14:23:02;22.10;99.90
31661;DHT22;18267;52.234;7.444;2023-07-29T14:25:28;22.10;99.90
31661;DHT22;18267;52.234;7.444;2023-07-29T14:27:53;22.00;99.90
31661;DHT22;18267;52.234;7.444;2023-07-29T14:30:19;22.10;99.90
31661;DHT22;18267;52.234;7.444;2023-07-29T14:32:45;22.30;99.90
31661;DHT22;18267;52.234;7.444;2023-07-29T14:35:10;22.50;99.90
31661;DHT22;18267;52.234;7.444;2023-07-29T14:37:36;22.50;99.90
31661;DHT22;18267;52.234;7.444;2023-07-29T14:40:03;22.70;99.90
31661;DHT22;18267;52.234;7.444;2023-07-29T14:42:28;22.80;99.90
31661;DHT22;18267;52.234;7.444;2023-07-29T14:44:54;22.80;99.90
31661;DHT22;18267;52.234;7.444;2023-07-29T14:47:20;22.70;99.90
31661;DHT22;18267;52.234;7.444;2023-07-29T14:49:45;22.80;99.90
31661;DHT22;18267;52.234;7.444;2023-07-29T14:52:11;22.60;99.90
31661;DHT22;18267;52.234;7.444;2023-07-29T14:54:36;22.60;99.90
31661;DHT22;18267;52.234;7.444;2023-07-29T14:57:02;22.70;99.90
31661;DHT22;18267;52.234;7.444;2023-07-29T14:59:28;22.60;99.90
31661;DHT22;18267;52.234;7.444;2023-07-29T15:01:53;22.70;99.90
31661;DHT22;18267;52.234;7.444;2023-07-29T15:04:19;22.60;99.90
31661;DHT22;18267;52.234;7.444;2023-07-29T15:06:45;22.60;99.90
31661;DHT22;18267;52.234;7.444;2023-07-29T15:09:11;22.50;99.90
31661;DHT22;18267;52.234;7.444;2023-07-29T15:11:36;22.50;99.90
31661;DHT22;18267;52.234;7.444;2023-07-29T15:14:02;22.50;99.90
31661;DHT22;18267;52.234;7.444;2023-07-29T15:16:29;22.50;99.90
31661;DHT22;18267;52.234;7.444;2023-07-29T15:18:55;22.40;99.90
31661;DHT22;18267;52.234;7.444;2023-07-29T15:21:20;22.50;99.90
31661;DHT22;18267;52.234;7.444;2023-07-29T15:23:46;22.50;99.90
31661;DHT22;18267;52.234;7.444;2023-07-29T15:26:12;22.60;99.90
31661;DHT22;18267;52.234;7.444;2023-07-29T15:28:37;22.70;99.90
31661;DHT22;18267;52.234;7.444;2023-07-29T15:31:03;22.60;99.90
31661;DHT22;18267;52.234;7.444;2023-07-29T15:33:29;22.60;99.90
31661;DHT22;18267;52.234;7.444;2023-07-29T15:35:54;22.60;99.90
31661;DHT22;18267;52.234;7.444;2023-07-29T15:38:20;22.50;99.90